createdAt,value
2019-06-08T00:01:22.673Z,21.98
2019-06-08T00:03:52.368Z,21.91
2019-06-08T00:06:23.086Z,21.82
2019-06-08T00:09:01.495Z,21.77
2019-06-08T00:11:30.968Z,21.76
2019-06-08T00:14:00.376Z,21.74
2019-06-08T00:16:29.840Z,21.75
2019-06-08T00:18:59.253Z,21.73
2019-06-08T00:21:28.628Z,21.75
2019-06-08T00:23:58.084Z,21.69
2019-06-08T00:26:27.678Z,21.71
2019-06-08T00:28:57.091Z,21.71
2019-06-08T00:31:26.494Z,21.66
2019-06-08T00:33:55.911Z,21.66
2019-06-08T00:36:25.362Z,21.64
2019-06-08T00:38:54.810Z,21.62
2019-06-08T00:41:25.424Z,21.56
2019-06-08T00:43:54.915Z,21.55
2019-06-08T00:46:25.583Z,21.46
2019-06-08T00:48:55.179Z,21.41
2019-06-08T00:51:25.595Z,21.37
2019-06-08T00:53:55.185Z,21.38
2019-06-08T00:56:25.900Z,21.39
2019-06-08T00:58:55.582Z,21.42
2019-06-08T01:01:27.799Z,21.41
2019-06-08T01:03:56.211Z,21.40
2019-06-08T01:06:25.569Z,21.39
2019-06-08T01:08:55.035Z,21.36
2019-06-08T01:11:24.772Z,21.29
2019-06-08T01:13:54.180Z,21.26
2019-06-08T01:16:23.582Z,21.18
2019-06-08T01:18:53.001Z,21.07
2019-06-08T01:21:23.295Z,21.03
2019-06-08T01:23:52.803Z,20.98
2019-06-08T01:26:22.372Z,20.95
2019-06-08T01:28:51.783Z,20.94
2019-06-08T01:31:22.439Z,20.88
2019-06-08T01:33:52.274Z,20.83
2019-06-08T01:36:22.803Z,20.88
2019-06-08T01:38:52.234Z,20.90
2019-06-08T01:41:21.594Z,20.88
2019-06-08T01:43:51.031Z,20.85
2019-06-08T01:46:21.765Z,20.89
2019-06-08T01:48:51.254Z,20.80
2019-06-08T01:51:20.610Z,20.76
2019-06-08T01:53:50.071Z,20.79
2019-06-08T01:56:19.713Z,20.86
2019-06-08T01:58:49.099Z,20.90
2019-06-08T02:01:18.578Z,20.90
2019-06-08T02:03:48.010Z,20.85
2019-06-08T02:06:17.486Z,20.91
2019-06-08T02:08:46.899Z,20.87
2019-06-08T02:11:16.269Z,20.80
2019-06-08T02:13:45.700Z,20.83
2019-06-08T02:16:15.157Z,20.79
2019-06-08T02:18:50.943Z,20.75
2019-06-08T02:21:15.792Z,20.68
2019-06-08T02:23:45.239Z,20.63
2019-06-08T02:26:14.613Z,20.59
2019-06-08T02:28:44.046Z,20.48
2019-06-08T02:31:13.584Z,20.38
2019-06-08T02:33:42.992Z,20.35
2019-06-08T02:36:12.351Z,20.32
2019-06-08T02:38:41.801Z,20.34
2019-06-08T02:41:11.255Z,20.41
2019-06-08T02:43:40.661Z,20.45
2019-06-08T02:46:10.120Z,20.54
2019-06-08T02:49:00.364Z,20.49
2019-06-08T02:51:10.767Z,20.50
2019-06-08T02:53:41.568Z,20.49
2019-06-08T02:56:14.528Z,20.47
2019-06-08T02:58:44.467Z,20.48
2019-06-08T03:01:17.525Z,20.52
2019-06-08T03:03:48.555Z,20.55
2019-06-08T03:06:20.611Z,20.54
2019-06-08T03:08:51.172Z,20.59
2019-06-08T03:11:21.806Z,20.70
2019-06-08T03:13:53.156Z,20.79
2019-06-08T03:16:22.532Z,20.91
2019-06-08T03:18:53.102Z,21.02
2019-06-08T03:21:22.554Z,21.11
2019-06-08T03:23:51.973Z,21.20
2019-06-08T03:26:21.389Z,21.28
2019-06-08T03:28:50.812Z,21.19
2019-06-08T03:31:20.279Z,21.37
2019-06-08T03:33:54.908Z,21.60
2019-06-08T03:36:22.949Z,21.75
2019-06-08T03:38:52.362Z,21.92
2019-06-08T03:41:21.781Z,22.13
2019-06-08T03:43:51.212Z,22.27
2019-06-08T03:46:20.666Z,22.41
2019-06-08T03:48:50.102Z,22.44
2019-06-08T03:51:19.461Z,22.28
2019-06-08T03:53:48.879Z,22.58
2019-06-08T03:56:18.391Z,22.78
2019-06-08T03:58:48.333Z,22.94
2019-06-08T04:01:17.927Z,23.11
2019-06-08T04:03:47.389Z,23.37
2019-06-08T04:06:16.933Z,23.47
2019-06-08T04:08:47.405Z,23.60
2019-06-08T04:11:17.223Z,23.65
2019-06-08T04:13:47.346Z,23.79
2019-06-08T04:16:16.862Z,23.74
2019-06-08T04:18:46.862Z,23.92
2019-06-08T04:21:17.716Z,23.95
2019-06-08T04:23:47.370Z,24.13
2019-06-08T04:26:16.809Z,24.29
2019-06-08T04:28:47.327Z,24.34
2019-06-08T04:31:17.416Z,24.40
2019-06-08T04:33:47.005Z,24.41
2019-06-08T04:36:16.362Z,24.47
2019-06-08T04:38:47.683Z,24.75
2019-06-08T04:41:16.975Z,24.98
2019-06-08T04:43:47.273Z,25.18
2019-06-08T04:46:17.503Z,25.34
2019-06-08T04:48:48.014Z,25.36
2019-06-08T04:51:18.136Z,25.53
2019-06-08T04:53:49.362Z,26.03
2019-06-08T04:56:18.740Z,26.19
2019-06-08T04:58:48.970Z,26.44
2019-06-08T05:01:19.226Z,26.73
2019-06-08T05:03:49.963Z,26.86
2019-06-08T05:06:19.781Z,27.14
2019-06-08T05:08:49.521Z,27.40
2019-06-08T05:11:19.273Z,27.60
2019-06-08T05:13:49.650Z,27.81
2019-06-08T05:16:19.509Z,27.96
2019-06-08T05:18:49.648Z,28.07
2019-06-08T05:21:19.344Z,28.29
2019-06-08T05:23:57.900Z,28.69
2019-06-08T05:26:20.025Z,28.30
2019-06-08T05:28:49.617Z,28.84
2019-06-08T05:31:19.069Z,29.22
2019-06-08T05:33:49.704Z,29.73
2019-06-08T05:36:19.327Z,30.09
2019-06-08T05:38:49.870Z,30.11
2019-06-08T05:41:19.651Z,30.14
2019-06-08T05:43:49.983Z,30.37
2019-06-08T05:46:19.171Z,30.60
2019-06-08T05:48:50.079Z,30.18
2019-06-08T05:51:19.877Z,30.02
2019-06-08T05:53:50.106Z,29.88
2019-06-08T05:56:19.665Z,29.72
2019-06-08T05:58:50.395Z,29.18
2019-06-08T06:01:20.069Z,29.55
2019-06-08T06:03:51.816Z,30.21
2019-06-08T06:06:20.619Z,30.62
2019-06-08T06:08:50.961Z,31.13
2019-06-08T06:11:20.812Z,31.20
2019-06-08T06:13:51.573Z,31.64
2019-06-08T06:16:24.516Z,31.44
2019-06-08T06:18:53.975Z,31.48
2019-06-08T06:21:23.362Z,31.05
2019-06-08T06:23:52.812Z,29.70
2019-06-08T06:26:22.359Z,29.07
2019-06-08T06:28:51.997Z,28.95
2019-06-08T06:31:21.371Z,28.85
2019-06-08T06:33:52.379Z,28.70
2019-06-08T06:36:22.164Z,28.90
2019-06-08T06:38:52.205Z,28.75
2019-06-08T06:41:21.789Z,28.58
2019-06-08T06:43:52.178Z,28.40
2019-06-08T06:46:21.801Z,28.30
2019-06-08T06:48:52.475Z,28.16
2019-06-08T06:51:26.365Z,28.22
2019-06-08T06:53:53.399Z,28.31
2019-06-08T06:56:22.853Z,28.35
2019-06-08T06:58:53.578Z,28.27
2019-06-08T07:01:23.353Z,28.37
2019-06-08T07:03:52.767Z,28.13
2019-06-08T07:06:22.188Z,28.17
2019-06-08T07:08:52.469Z,28.30
2019-06-08T07:11:22.061Z,28.40
2019-06-08T07:13:51.473Z,28.21
2019-06-08T07:16:20.916Z,27.51
2019-06-08T07:18:50.406Z,27.84
2019-06-08T07:21:19.974Z,27.96
2019-06-08T07:23:51.122Z,27.85
2019-06-08T07:26:20.628Z,28.19
2019-06-08T07:28:52.462Z,28.48
2019-06-08T07:31:21.257Z,28.65
2019-06-08T07:33:51.950Z,28.55
2019-06-08T07:36:21.909Z,28.68
2019-06-08T07:38:51.455Z,28.51
2019-06-08T07:41:20.826Z,28.73
2019-06-08T07:43:50.785Z,28.87
2019-06-08T07:46:20.334Z,28.97
2019-06-08T07:48:50.398Z,29.08
2019-06-08T07:51:19.893Z,29.18
2019-06-08T07:53:49.864Z,29.23
2019-06-08T07:56:19.522Z,29.32
2019-06-08T07:58:50.114Z,29.12
2019-06-08T08:01:35.305Z,29.36
2019-06-08T08:03:52.143Z,29.48
2019-06-08T08:06:21.686Z,29.19
2019-06-08T08:08:52.508Z,29.43
2019-06-08T08:11:22.062Z,29.32
2019-06-08T08:13:53.107Z,29.52
2019-06-08T08:16:22.874Z,29.38
2019-06-08T08:18:53.408Z,29.37
2019-06-08T08:21:26.209Z,29.53
2019-06-08T08:23:55.186Z,29.58
2019-06-08T08:26:27.307Z,29.72
2019-06-08T08:28:59.792Z,29.72
2019-06-08T08:31:28.011Z,29.79
2019-06-08T08:34:03.352Z,30.04
2019-06-08T08:36:30.149Z,30.23
2019-06-08T08:39:02.092Z,30.04
2019-06-08T08:41:31.057Z,30.16
2019-06-08T08:44:02.860Z,30.26
2019-06-08T08:46:31.711Z,30.30
2019-06-08T08:49:09.084Z,30.24
2019-06-08T08:51:32.235Z,30.56
2019-06-08T08:54:05.095Z,30.75
2019-06-08T08:56:32.854Z,30.83
2019-06-08T08:59:02.952Z,30.94
2019-06-08T09:01:32.451Z,31.00
2019-06-08T09:04:04.950Z,31.03
2019-06-08T09:06:34.764Z,31.13
2019-06-08T09:09:08.661Z,31.00
2019-06-08T09:11:38.399Z,31.19
2019-06-08T09:14:13.799Z,31.49
2019-06-08T09:16:39.831Z,31.55
2019-06-08T09:19:09.282Z,31.56
2019-06-08T09:21:38.992Z,31.40
2019-06-08T09:24:08.468Z,31.10
2019-06-08T09:26:38.314Z,31.55
2019-06-08T09:29:11.052Z,31.50
2019-06-08T09:31:39.332Z,31.82
2019-06-08T09:34:14.462Z,31.81
2019-06-08T09:36:40.807Z,31.95
2019-06-08T09:39:12.975Z,32.08
2019-06-08T09:41:41.484Z,32.19
2019-06-08T09:44:11.686Z,32.27
2019-06-08T09:46:41.589Z,32.43
2019-06-08T09:49:11.801Z,32.38
2019-06-08T09:51:41.512Z,31.99
2019-06-08T09:54:12.665Z,32.20
2019-06-08T09:56:42.209Z,32.06
2019-06-08T09:59:14.660Z,32.30
2019-06-08T10:09:58.825Z,32.52
2019-06-08T10:12:28.208Z,32.81
2019-06-08T10:14:58.796Z,32.76
2019-06-08T10:17:28.258Z,32.77
2019-06-08T10:20:00.483Z,32.81
2019-06-08T10:22:29.036Z,33.02
2019-06-08T10:25:02.838Z,32.98
2019-06-08T10:27:30.133Z,32.95
2019-06-08T10:30:02.838Z,32.66
2019-06-08T10:32:30.700Z,32.81
2019-06-08T10:35:03.566Z,33.06
2019-06-08T10:37:31.828Z,33.34
2019-06-08T10:40:03.738Z,33.49
2019-06-08T10:42:32.409Z,33.46
2019-06-08T10:45:06.514Z,33.75
2019-06-08T10:47:33.928Z,33.84
2019-06-08T10:50:08.989Z,34.00
2019-06-08T10:52:38.975Z,34.07
2019-06-08T10:55:10.391Z,34.13
2019-06-08T10:57:40.251Z,34.27
2019-06-08T11:00:17.947Z,34.38
2019-06-08T11:02:41.796Z,34.03
2019-06-08T11:05:13.953Z,34.04
2019-06-08T11:07:42.480Z,34.11
2019-06-08T11:10:12.673Z,34.22
2019-06-08T11:12:42.389Z,34.20
2019-06-08T11:15:12.143Z,34.16
2019-06-08T11:17:41.555Z,34.12
2019-06-08T11:20:13.625Z,33.80
2019-06-08T11:22:42.865Z,34.10
2019-06-08T11:25:16.003Z,34.29
2019-06-08T11:27:43.716Z,34.49
2019-06-08T11:30:20.695Z,34.59
2019-06-08T11:32:44.342Z,34.72
2019-06-08T11:35:14.429Z,34.72
2019-06-08T11:37:43.782Z,34.64
2019-06-08T11:40:13.535Z,34.49
2019-06-08T11:42:42.930Z,34.49
2019-06-08T11:45:13.287Z,34.47
2019-06-08T11:47:42.918Z,34.57
2019-06-08T11:50:13.410Z,34.70
2019-06-08T11:52:42.852Z,34.86
2019-06-08T11:55:13.144Z,35.02
2019-06-08T11:57:44.209Z,35.06
2019-06-08T12:00:27.404Z,34.99
2019-06-08T12:02:51.156Z,34.48
2019-06-08T12:05:20.585Z,34.47
2019-06-08T12:07:50.127Z,34.45
2019-06-08T12:10:19.749Z,34.46
2019-06-08T12:12:49.172Z,34.50
2019-06-08T12:15:21.151Z,34.45
2019-06-08T12:17:50.336Z,34.50
2019-06-08T12:20:21.456Z,34.58
2019-06-08T12:22:51.248Z,34.52
2019-06-08T12:25:20.803Z,34.70
2019-06-08T12:27:52.694Z,34.78
2019-06-08T12:30:25.955Z,34.65
2019-06-08T12:32:52.662Z,34.65
2019-06-08T12:35:22.215Z,34.78
2019-06-08T12:37:51.745Z,34.94
2019-06-08T12:40:21.175Z,34.84
2019-06-08T12:42:50.686Z,34.93
2019-06-08T12:45:20.527Z,34.95
2019-06-08T12:47:49.957Z,34.88
2019-06-08T12:50:20.091Z,34.89
2019-06-08T12:52:50.052Z,34.91
2019-06-08T12:55:24.720Z,34.81
2019-06-08T12:57:51.719Z,34.51
2019-06-08T13:00:21.909Z,34.69
2019-06-08T13:02:51.286Z,34.52
2019-06-08T13:05:22.875Z,34.69
2019-06-08T13:07:51.963Z,34.85
2019-06-08T13:10:23.999Z,34.89
2019-06-08T13:12:52.525Z,35.08
2019-06-08T13:15:22.177Z,35.06
2019-06-08T13:17:51.655Z,34.96
2019-06-08T13:20:22.600Z,34.88
2019-06-08T13:22:52.006Z,34.89
2019-06-08T13:25:36.149Z,34.79
2019-06-08T13:27:52.546Z,34.94
2019-06-08T13:30:26.013Z,34.97
2019-06-08T13:32:54.056Z,34.77
2019-06-08T13:35:23.419Z,34.81
2019-06-08T13:37:53.071Z,34.77
2019-06-08T13:40:23.730Z,34.63
2019-06-08T13:42:53.133Z,34.71
2019-06-08T13:45:23.523Z,34.71
2019-06-08T13:47:53.019Z,34.77
2019-06-08T13:50:24.013Z,34.87
2019-06-08T13:52:53.448Z,34.97
2019-06-08T13:55:42.627Z,35.05
2019-06-08T13:57:53.976Z,35.06
2019-06-08T14:00:34.458Z,34.97
2019-06-08T14:03:04.426Z,34.89
2019-06-08T14:05:33.810Z,34.97
2019-06-08T14:08:03.320Z,34.95
2019-06-08T14:10:40.033Z,34.97
2019-06-08T14:13:09.639Z,34.99
2019-06-08T14:15:39.021Z,35.12
2019-06-08T14:18:09.053Z,35.16
2019-06-08T14:20:38.934Z,34.96
2019-06-08T14:23:09.317Z,34.74
2019-06-08T14:25:49.987Z,34.77
2019-06-08T14:28:12.534Z,34.80
2019-06-08T14:30:41.946Z,34.68
2019-06-08T14:33:11.435Z,34.47
2019-06-08T14:35:40.933Z,34.68
2019-06-08T14:38:10.291Z,34.55
2019-06-08T14:40:40.788Z,34.54
2019-06-08T14:43:10.865Z,34.67
2019-06-08T14:45:40.371Z,34.74
2019-06-08T14:48:09.739Z,34.83
2019-06-08T14:50:40.845Z,34.82
2019-06-08T14:53:10.330Z,34.69
2019-06-08T14:55:39.779Z,34.80
2019-06-08T14:58:09.182Z,34.81
2019-06-08T15:00:38.650Z,34.86
2019-06-08T15:03:09.391Z,34.82
2019-06-08T15:05:38.784Z,34.75
2019-06-08T15:08:08.477Z,34.72
2019-06-08T15:10:38.529Z,34.71
2019-06-08T15:13:08.154Z,34.63
2019-06-08T15:15:38.148Z,34.62
2019-06-08T15:18:10.980Z,34.54
2019-06-08T15:20:39.347Z,34.50
2019-06-08T15:23:08.871Z,34.39
2019-06-08T15:25:38.818Z,34.41
2019-06-08T15:28:08.508Z,34.44
2019-06-08T15:30:38.242Z,34.44
2019-06-08T15:33:07.729Z,34.40
2019-06-08T15:35:37.865Z,34.36
2019-06-08T15:38:08.337Z,34.38
2019-06-08T15:58:58.429Z,34.43
2019-06-08T16:01:27.573Z,34.30
2019-06-08T16:03:56.949Z,34.32
2019-06-08T16:06:27.705Z,34.12
2019-06-08T16:08:57.284Z,34.27
2019-06-08T16:11:26.668Z,34.28
2019-06-08T16:13:56.091Z,34.23
2019-06-08T16:16:26.982Z,34.14
2019-06-08T16:18:56.601Z,34.07
2019-06-08T16:21:27.111Z,34.01
2019-06-08T16:23:56.721Z,33.91
2019-06-08T16:26:26.177Z,33.96
2019-06-08T16:28:55.669Z,33.70
2019-06-08T16:31:25.030Z,33.72
2019-06-08T16:33:54.410Z,33.72
2019-06-08T16:36:23.942Z,33.68
2019-06-08T16:38:53.310Z,33.34
2019-06-08T16:41:22.839Z,33.44
2019-06-08T16:43:52.326Z,33.48
2019-06-08T16:46:21.706Z,33.34
2019-06-08T16:48:51.068Z,33.16
2019-06-08T16:51:20.609Z,33.09
2019-06-08T16:53:50.070Z,33.09
2019-06-08T16:56:19.464Z,32.89
2019-06-08T16:58:48.885Z,32.84
2019-06-08T17:01:18.363Z,32.76
2019-06-08T17:03:47.865Z,32.75
2019-06-08T17:06:17.281Z,32.52
2019-06-08T17:08:46.672Z,32.50
2019-06-08T17:11:16.206Z,32.46
2019-06-08T17:13:45.708Z,32.37
2019-06-08T17:16:15.099Z,32.29
2019-06-08T17:18:44.566Z,32.25
2019-06-08T17:21:13.965Z,32.14
2019-06-08T17:23:43.340Z,31.98
2019-06-08T17:26:12.809Z,31.84
2019-06-08T17:28:42.279Z,31.81
2019-06-08T17:31:11.641Z,31.77
2019-06-08T17:33:41.486Z,31.72
2019-06-08T17:36:11.087Z,31.58
2019-06-08T17:38:41.455Z,31.46
2019-06-08T17:41:10.875Z,31.39
2019-06-08T17:43:42.617Z,31.23
2019-06-08T17:46:15.828Z,31.17
2019-06-08T17:48:47.947Z,31.10
2019-06-08T17:51:18.364Z,31.04
2019-06-08T17:53:48.395Z,31.00
2019-06-08T17:56:17.917Z,30.83
2019-06-08T17:58:47.328Z,30.72
2019-06-08T18:01:18.040Z,30.64
2019-06-08T18:03:48.244Z,30.56
2019-06-08T18:06:18.005Z,30.50
2019-06-08T18:08:48.142Z,30.46
2019-06-08T18:11:17.746Z,30.40
2019-06-08T18:13:48.420Z,30.34
2019-06-08T18:16:20.680Z,30.24
2019-06-08T18:18:50.086Z,30.15
2019-06-08T18:21:19.557Z,30.10
2019-06-08T18:23:49.011Z,30.03
2019-06-08T18:26:18.449Z,29.98
2019-06-08T18:28:48.532Z,29.98
2019-06-08T18:31:18.242Z,29.95
2019-06-08T18:33:50.421Z,29.86
2019-06-08T18:36:18.892Z,29.77
2019-06-08T18:38:48.645Z,29.77
2019-06-08T18:41:18.428Z,29.71
2019-06-08T18:43:49.511Z,29.68
2019-06-08T18:46:18.995Z,29.68
2019-06-08T18:48:49.494Z,29.66
2019-06-08T18:51:19.058Z,29.49
2019-06-08T18:54:06.684Z,29.48
2019-06-08T18:56:19.678Z,29.49
2019-06-08T18:58:53.531Z,29.46
2019-06-08T19:01:22.973Z,29.28
2019-06-08T19:03:52.920Z,29.31
2019-06-08T19:06:22.852Z,29.26
2019-06-08T19:08:52.971Z,29.27
2019-06-08T19:11:22.467Z,29.23
2019-06-08T19:13:52.636Z,29.10
2019-06-08T19:16:22.490Z,29.04
2019-06-08T19:18:52.833Z,29.02
2019-06-08T19:21:22.886Z,28.90
2019-06-08T19:23:52.259Z,28.79
2019-06-08T19:26:21.800Z,28.68
2019-06-08T19:28:54.034Z,28.58
2019-06-08T19:31:22.429Z,28.38
2019-06-08T19:33:53.487Z,28.35
2019-06-08T19:36:23.196Z,28.12
2019-06-08T19:38:54.745Z,27.96
2019-06-08T19:41:23.856Z,27.99
2019-06-08T19:43:54.956Z,28.00
2019-06-08T19:46:27.005Z,27.88
2019-06-08T19:48:58.736Z,27.83
2019-06-08T19:51:27.839Z,27.86
2019-06-08T19:53:58.464Z,27.84
2019-06-08T19:56:28.774Z,27.82
2019-06-08T19:59:04.083Z,27.79
2019-06-08T20:01:30.971Z,27.78
2019-06-08T20:04:01.552Z,27.72
2019-06-08T20:06:31.039Z,27.67
2019-06-08T20:09:00.433Z,27.66
2019-06-08T20:11:29.927Z,27.68
2019-06-08T20:13:59.505Z,27.75
2019-06-08T20:16:28.875Z,27.76
2019-06-08T20:18:58.567Z,27.77
2019-06-08T20:21:28.283Z,27.68
2019-06-08T20:23:58.506Z,27.55
2019-06-08T20:26:28.569Z,27.49
2019-06-08T20:29:12.236Z,27.41
2019-06-08T20:31:29.343Z,27.43
2019-06-08T20:33:58.848Z,27.36
2019-06-08T20:36:28.845Z,27.28
2019-06-08T20:38:58.767Z,27.26
2019-06-08T20:41:28.176Z,27.19
2019-06-08T20:43:58.099Z,27.03
2019-06-08T20:46:28.617Z,26.87
2019-06-08T20:48:58.457Z,26.80
2019-06-08T20:51:28.021Z,26.76
2019-06-08T20:53:57.503Z,26.67
2019-06-08T20:56:28.047Z,26.59
2019-06-08T20:58:57.824Z,26.61
2019-06-08T21:01:27.282Z,26.64
2019-06-08T21:03:57.216Z,26.63
2019-06-08T21:06:27.971Z,26.55
2019-06-08T21:08:59.777Z,26.52
2019-06-08T21:11:28.779Z,26.48
2019-06-08T21:13:58.167Z,26.46
2019-06-08T21:16:27.847Z,26.48
2019-06-08T21:18:58.057Z,26.42
2019-06-08T21:21:28.277Z,26.42
2019-06-08T21:24:01.061Z,26.49
2019-06-08T21:26:29.355Z,26.45
2019-06-08T21:29:00.539Z,26.37
2019-06-08T21:31:30.152Z,26.38
2019-06-08T21:34:00.815Z,26.33
2019-06-08T21:36:30.448Z,26.30
2019-06-08T21:39:02.332Z,26.24
2019-06-08T21:41:31.055Z,26.14
2019-06-08T21:44:01.973Z,26.12
2019-06-08T21:46:31.697Z,26.09
2019-06-08T21:49:01.118Z,26.03
2019-06-08T21:51:30.706Z,25.96
2019-06-08T21:54:00.593Z,25.99
2019-06-08T21:56:30.250Z,25.91
2019-06-08T21:59:01.117Z,25.89
2019-06-08T22:01:32.636Z,25.88
2019-06-08T22:04:02.431Z,25.89
2019-06-08T22:06:32.034Z,25.85
2019-06-08T22:09:02.842Z,25.84
2019-06-08T22:11:32.358Z,25.78
2019-06-08T22:14:03.027Z,25.78
2019-06-08T22:16:32.680Z,25.78
2019-06-08T22:19:03.393Z,25.77
2019-06-08T22:21:32.919Z,25.72
2019-06-08T22:24:03.501Z,25.66
2019-06-08T22:26:33.233Z,25.62
2019-06-08T22:29:03.751Z,25.63
2019-06-08T22:31:34.178Z,25.60
2019-06-08T22:34:04.078Z,25.58
2019-06-08T22:36:33.680Z,25.55
2019-06-08T22:39:03.803Z,25.57
2019-06-08T22:41:33.462Z,25.49
2019-06-08T22:44:03.202Z,25.42
2019-06-08T22:46:32.564Z,25.47
2019-06-08T22:49:02.763Z,25.48
2019-06-08T22:51:33.278Z,25.37
2019-06-08T22:54:03.954Z,25.25
2019-06-08T22:56:33.627Z,25.18
2019-06-08T22:59:05.583Z,25.15
2019-06-08T23:01:34.297Z,25.10
2019-06-08T23:04:05.544Z,25.12
2019-06-08T23:06:34.996Z,25.24
2019-06-08T23:09:05.637Z,25.22
2019-06-08T23:11:37.597Z,25.19
2019-06-08T23:14:12.963Z,25.18
2019-06-08T23:16:38.298Z,25.23
2019-06-08T23:19:08.111Z,25.25
2019-06-08T23:21:38.222Z,25.26
2019-06-08T23:24:08.631Z,25.19
2019-06-08T23:26:38.270Z,25.18
2019-06-08T23:29:09.571Z,25.15
2019-06-08T23:31:40.598Z,25.13
2019-06-08T23:34:11.678Z,25.15
2019-06-08T23:36:55.339Z,25.15
2019-06-08T23:39:22.612Z,25.18
2019-06-08T23:41:54.763Z,25.20
2019-06-08T23:44:28.341Z,25.26
2019-06-08T23:47:01.310Z,25.31
2019-06-08T23:49:31.067Z,25.33
2019-06-08T23:52:02.184Z,25.34
2019-06-08T23:54:31.565Z,25.39
2019-06-08T23:57:01.184Z,25.43
2019-06-08T23:59:30.714Z,25.42
